Aérodrome :
LOGIN :

S'inscrire | Disclaimer

   EN    FR    IT 

 










Légende :    VFR   VFR Marginal   IFR   IFR Intensif   IFR Très Intensif
Visi : 
Plafond : 
>= 8 km
>= 3000ft
5 à 8 km
1000 à 3000 ft
1500m à 5 km
500 à 1000 ft
800 à 1500m
200 à 500 ft
< 800m
< 200 ft
Symboles :   Orages  Brouillard  Fortes neiges  Fortes précipitations  Vent > 20 kt
SIGMETs :   Divers  Orages  Givrage  Turbulence  Onde Orograph.  Cendres Volcan.







- Altitude de l'aérodrome : 13 ft
- Code IATA : CEQ
- Voir les cartes d'approche


LFMD - Cannes Mandelieu

DERNIER METAR :
  • 230330Z AUTO 35003KT 310V050 CAVOK 18/14 Q1010 NOSIG

METARs EXPIRÉS :
  • 230300Z AUTO VRB02KT CAVOK 18/15 Q1010 NOSIG
  • 230230Z AUTO 01006KT 340V040 CAVOK 18/15 Q1010 NOSIG
  • 230200Z AUTO 36005KT 320V040 CAVOK 18/15 Q1010
  • 230130Z AUTO 35003KT 300V030 CAVOK 19/15 Q1010
  • 230100Z AUTO 36004KT 310V030 CAVOK 19/16 Q1010

TAF TAF LFMD
Valide du 23 à 03h jusqu'au 24 à 03h UTC


230200Z 2303/2403 VRB03KT CAVOK
BECMG 2309/2312 18015KT
BECMG 2318/2320 VRB03KT
ATIS : +33 4 93 48 73 23
Pas de NOTAMs connus pour ce terrain.
1 SIGMET publié pour la FIR Marseille (LFMM) :
 
Orages noyés dans la masse
LFMM SIGMET 1 VALID 230000/230400 LFPW
LFMM MARSEILLE FIR/UIR EMBD TS OBS AT 0000Z WI N4315 E00915 - N4315 E00945 - N4145 E00945 - N4200 E00715 - N4315 E00730 - N4315 E00915 TOP FL380 MOV S 10KT NC=



MET'MAP, la Météo Aéronautique d'un coup d'oeil ! - Copyright ORBIFLY Décembre 2007 - Disclaimer

ORBIFLY MET'MAP TEAM :

Programmation & Développement : Alexandra Zaïnal
Conception & Développement : Baudouin d'Aumeries
Co-Programmation & Développement : Marc-Olivier Méhu
Soutien technique & logistique : Manuel Goepfert

Contact : metmap@orbifly.com




SOURCES & CREDITS :

   NOAA